createdAt,value
2018-05-04T00:00:01.789Z,16.80
2018-05-04T00:02:29.183Z,16.30
2018-05-04T00:04:56.683Z,16.45
2018-05-04T00:07:24.078Z,16.51
2018-05-04T00:09:52.376Z,16.53
2018-05-04T00:12:19.931Z,16.53
2018-05-04T00:14:47.331Z,16.46
2018-05-04T00:17:14.724Z,16.62
2018-05-04T00:19:42.105Z,16.63
2018-05-04T00:22:09.542Z,16.34
2018-05-04T00:24:36.910Z,16.09
2018-05-04T00:27:04.307Z,16.18
2018-05-04T00:29:31.754Z,16.13
2018-05-04T00:31:59.135Z,16.17
2018-05-04T00:34:26.530Z,16.09
2018-05-04T00:36:53.944Z,16.06
2018-05-04T00:39:21.335Z,15.98
2018-05-04T00:41:48.727Z,15.99
2018-05-04T00:44:16.121Z,16.08
2018-05-04T00:46:43.504Z,15.92
2018-05-04T00:49:10.913Z,16.06
2018-05-04T00:51:38.317Z,16.15
2018-05-04T00:54:17.532Z,16.12
2018-05-04T00:56:44.921Z,16.07
2018-05-04T00:59:12.313Z,15.90
2018-05-04T01:01:39.720Z,15.61
2018-05-04T01:04:07.106Z,15.74
2018-05-04T01:06:34.505Z,15.60
2018-05-04T01:09:01.888Z,15.65
2018-05-04T01:11:29.262Z,15.55
2018-05-04T01:13:56.656Z,15.52
2018-05-04T01:16:24.053Z,15.44
2018-05-04T01:18:51.490Z,15.67
2018-05-04T01:21:19.731Z,15.64
2018-05-04T01:23:47.138Z,15.57
2018-05-04T01:26:14.515Z,15.45
2018-05-04T01:28:41.928Z,15.40
2018-05-04T01:31:09.332Z,15.44
2018-05-04T01:33:36.736Z,15.43
2018-05-04T01:36:04.169Z,15.50
2018-05-04T01:38:31.632Z,15.12
2018-05-04T01:40:59.020Z,15.45
2018-05-04T01:43:26.396Z,15.05
2018-05-04T01:45:53.801Z,15.22
2018-05-04T01:48:21.291Z,15.29
2018-05-04T01:50:48.668Z,15.45
2018-05-04T01:53:16.076Z,15.39
2018-05-04T01:55:43.455Z,15.39
2018-05-04T01:58:10.849Z,15.24
2018-05-04T02:00:38.412Z,15.06
2018-05-04T02:03:05.816Z,15.09
2018-05-04T02:05:33.245Z,14.87
2018-05-04T02:08:00.649Z,14.58
2018-05-04T02:10:28.031Z,14.78
2018-05-04T02:12:55.435Z,15.04
2018-05-04T02:15:22.913Z,14.96
2018-05-04T02:17:50.318Z,14.77
2018-05-04T02:20:19.344Z,14.96
2018-05-04T02:22:46.749Z,15.15
2018-05-04T02:25:14.146Z,15.02
2018-05-04T02:27:41.539Z,15.01
2018-05-04T02:30:08.929Z,15.09
2018-05-04T02:32:36.343Z,14.93
2018-05-04T02:35:03.737Z,14.90
2018-05-04T02:37:31.157Z,14.72
2018-05-04T02:39:58.552Z,14.80
2018-05-04T02:42:25.987Z,14.71
2018-05-04T02:44:53.382Z,14.99
2018-05-04T02:47:20.760Z,14.63
2018-05-04T02:49:48.173Z,14.65
2018-05-04T02:52:15.576Z,14.81
2018-05-04T02:54:42.976Z,14.78
2018-05-04T02:57:10.414Z,14.67
2018-05-04T02:59:37.819Z,14.60
2018-05-04T03:02:05.187Z,14.64
2018-05-04T03:04:32.912Z,14.63
2018-05-04T03:07:00.292Z,14.44
2018-05-04T03:09:27.704Z,14.62
2018-05-04T03:11:55.133Z,14.41
2018-05-04T03:14:22.780Z,14.40
2018-05-04T03:16:50.245Z,14.18
2018-05-04T03:19:17.656Z,14.11
2018-05-04T03:21:45.057Z,14.42
2018-05-04T03:24:12.477Z,14.42
2018-05-04T03:26:39.859Z,14.19
2018-05-04T03:29:07.247Z,14.04
2018-05-04T03:31:34.676Z,14.03
2018-05-04T03:34:02.071Z,14.00
2018-05-04T03:36:29.469Z,13.99
2018-05-04T03:38:56.847Z,13.95
2018-05-04T03:41:24.231Z,14.19
2018-05-04T03:43:51.625Z,14.05
2018-05-04T03:46:19.028Z,14.13
2018-05-04T03:48:46.424Z,14.08
2018-05-04T03:51:13.819Z,13.98
2018-05-04T03:53:41.232Z,13.96
2018-05-04T03:56:08.629Z,13.87
2018-05-04T03:58:47.881Z,13.91
2018-05-04T04:01:27.115Z,13.92
2018-05-04T04:04:04.165Z,13.86
2018-05-04T04:06:31.524Z,13.73
2018-05-04T04:08:58.911Z,13.61
2018-05-04T04:11:26.368Z,13.70
2018-05-04T04:13:53.760Z,13.90
2018-05-04T04:16:21.232Z,13.88
2018-05-04T04:18:48.567Z,13.90
2018-05-04T04:21:15.969Z,13.68
2018-05-04T04:23:43.363Z,13.61
2018-05-04T04:26:10.807Z,13.86
2018-05-04T04:28:38.196Z,13.85
2018-05-04T04:31:05.584Z,13.90
2018-05-04T04:33:32.987Z,13.57
2018-05-04T04:36:00.378Z,13.87
2018-05-04T04:38:27.751Z,13.95
2018-05-04T04:40:55.239Z,13.90
2018-05-04T04:43:22.624Z,13.97
2018-05-04T04:45:50.016Z,13.79
2018-05-04T04:48:17.391Z,13.81
2018-05-04T04:50:44.851Z,13.86
2018-05-04T04:53:12.255Z,13.76
2018-05-04T04:55:39.630Z,13.65
2018-05-04T04:58:07.019Z,13.92
2018-05-04T05:00:35.404Z,13.88
2018-05-04T05:03:02.839Z,13.80
2018-05-04T05:05:30.355Z,13.83
2018-05-04T05:07:57.757Z,13.65
2018-05-04T05:10:25.153Z,13.73
2018-05-04T05:12:52.531Z,13.79
2018-05-04T05:15:19.935Z,13.93
2018-05-04T05:17:47.327Z,13.90
2018-05-04T05:20:14.819Z,13.90
2018-05-04T05:22:42.215Z,13.96
2018-05-04T05:25:09.593Z,13.89
2018-05-04T05:27:36.970Z,13.91
2018-05-04T05:30:04.367Z,14.06
2018-05-04T05:32:32.399Z,14.14
2018-05-04T05:35:00.273Z,14.19
2018-05-04T05:37:27.643Z,13.96
2018-05-04T05:39:55.115Z,14.10
2018-05-04T05:42:22.627Z,14.26
2018-05-04T05:44:49.897Z,14.06
2018-05-04T05:47:17.289Z,14.05
2018-05-04T05:49:44.675Z,14.01
2018-05-04T05:52:12.795Z,14.23
2018-05-04T05:54:40.237Z,14.24
2018-05-04T05:57:07.699Z,14.40
2018-05-04T05:59:35.087Z,14.29
2018-05-04T06:02:02.476Z,14.54
2018-05-04T06:04:29.847Z,14.41
2018-05-04T06:06:57.240Z,14.55
2018-05-04T06:09:24.780Z,14.45
2018-05-04T06:11:52.084Z,14.58
2018-05-04T06:14:19.513Z,14.79
2018-05-04T06:16:47.044Z,14.80
2018-05-04T06:19:14.416Z,14.70
2018-05-04T06:21:41.807Z,14.89
2018-05-04T06:24:09.180Z,14.93
2018-05-04T06:26:36.612Z,15.07
2018-05-04T06:29:04.039Z,14.92
2018-05-04T06:31:31.425Z,14.73
2018-05-04T06:33:58.795Z,14.85
2018-05-04T06:36:26.523Z,15.04
2018-05-04T06:38:53.903Z,15.06
2018-05-04T06:41:21.310Z,15.17
2018-05-04T06:43:48.682Z,14.97
2018-05-04T06:46:16.090Z,15.03
2018-05-04T06:48:43.499Z,15.15
2018-05-04T06:51:10.938Z,15.31
2018-05-04T06:53:38.337Z,15.09
2018-05-04T06:56:05.785Z,15.10
2018-05-04T06:58:33.205Z,15.17
2018-05-04T07:01:00.588Z,15.45
2018-05-04T07:03:27.964Z,15.65
2018-05-04T07:05:55.362Z,15.65
2018-05-04T07:08:22.767Z,15.62
2018-05-04T07:10:50.311Z,15.69
2018-05-04T07:13:17.692Z,15.64
2018-05-04T07:15:45.091Z,15.69
2018-05-04T07:18:12.459Z,15.92
2018-05-04T07:20:39.932Z,15.97
2018-05-04T07:23:07.350Z,16.08
2018-05-04T07:25:34.748Z,16.13
2018-05-04T07:28:02.126Z,16.24
2018-05-04T07:30:29.806Z,16.48
2018-05-04T07:32:57.416Z,16.61
2018-05-04T07:35:24.810Z,16.20
2018-05-04T07:37:52.203Z,16.48
2018-05-04T07:40:19.611Z,16.68
2018-05-04T07:42:47.015Z,16.80
2018-05-04T07:45:14.506Z,16.76
2018-05-04T07:47:41.876Z,16.78
2018-05-04T07:50:09.280Z,16.75
2018-05-04T07:52:36.653Z,16.62
2018-05-04T07:55:04.039Z,16.62
2018-05-04T07:57:31.443Z,16.67
2018-05-04T07:59:58.830Z,16.39
2018-05-04T08:02:26.235Z,16.66
2018-05-04T08:04:53.661Z,16.77
2018-05-04T08:07:21.051Z,16.94
2018-05-04T08:09:48.513Z,16.89
2018-05-04T08:12:15.842Z,17.00
2018-05-04T08:14:43.547Z,17.15
2018-05-04T08:17:10.955Z,17.26
2018-05-04T08:19:38.371Z,17.29
2018-05-04T08:22:05.742Z,17.38
2018-05-04T08:24:33.175Z,17.56
2018-05-04T08:27:00.608Z,17.61
2018-05-04T08:29:27.989Z,17.87
2018-05-04T08:31:55.416Z,17.92
2018-05-04T08:34:22.782Z,17.93
2018-05-04T08:36:50.176Z,17.96
2018-05-04T08:39:17.551Z,17.89
2018-05-04T08:41:44.947Z,17.97
2018-05-04T08:44:12.316Z,17.99
2018-05-04T08:46:40.817Z,18.13
2018-05-04T08:49:08.263Z,18.38
2018-05-04T08:51:35.679Z,18.38
2018-05-04T08:54:03.072Z,18.63
2018-05-04T08:56:30.522Z,18.70
2018-05-04T08:58:57.927Z,18.72
2018-05-04T09:01:25.349Z,18.96
2018-05-04T09:03:52.729Z,18.99
2018-05-04T09:06:22.246Z,19.15
2018-05-04T09:08:50.595Z,19.26
2018-05-04T09:11:17.988Z,19.47
2018-05-04T09:13:45.461Z,19.39
2018-05-04T09:16:12.847Z,19.56
2018-05-04T09:18:40.308Z,19.69
2018-05-04T09:21:07.698Z,19.78
2018-05-04T09:23:35.082Z,19.74
2018-05-04T09:26:02.470Z,19.92
2018-05-04T09:28:30.026Z,19.97
2018-05-04T09:30:57.820Z,20.03
2018-05-04T09:33:25.350Z,20.06
2018-05-04T09:35:52.783Z,20.07
2018-05-04T09:38:20.160Z,20.03
2018-05-04T09:40:47.547Z,20.14
2018-05-04T09:43:14.932Z,20.30
2018-05-04T09:45:42.311Z,20.24
2018-05-04T09:48:09.721Z,20.44
2018-05-04T09:50:37.127Z,20.60
2018-05-04T09:53:04.525Z,20.70
2018-05-04T09:55:31.910Z,20.74
2018-05-04T09:57:59.307Z,20.74
2018-05-04T10:00:26.796Z,20.74
2018-05-04T10:02:54.205Z,20.79
2018-05-04T10:05:21.594Z,20.76
2018-05-04T10:07:49.147Z,20.68
2018-05-04T10:10:16.626Z,20.66
2018-05-04T10:12:44.032Z,20.64
2018-05-04T10:15:11.400Z,20.93
2018-05-04T10:17:38.798Z,20.97
2018-05-04T10:20:06.571Z,21.07
2018-05-04T10:22:33.996Z,21.21
2018-05-04T10:25:01.373Z,21.37
2018-05-04T10:27:28.762Z,21.43
2018-05-04T10:29:56.157Z,21.71
2018-05-04T10:32:23.530Z,21.73
2018-05-04T10:34:50.928Z,21.78
2018-05-04T10:37:18.318Z,21.62
2018-05-04T10:39:45.689Z,21.71
2018-05-04T10:42:13.242Z,21.95
2018-05-04T10:44:40.647Z,21.86
2018-05-04T10:47:08.045Z,21.91
2018-05-04T10:49:35.423Z,22.09
2018-05-04T10:52:02.903Z,22.10
2018-05-04T10:54:30.289Z,22.26
2018-05-04T10:56:57.699Z,22.30
2018-05-04T10:59:25.072Z,22.45
2018-05-04T11:01:52.495Z,22.50
2018-05-04T11:04:19.879Z,22.54
2018-05-04T11:06:47.287Z,22.67
2018-05-04T11:09:14.671Z,22.81
2018-05-04T11:11:42.042Z,22.79
2018-05-04T11:14:09.420Z,22.85
2018-05-04T11:16:36.842Z,22.88
2018-05-04T11:19:04.231Z,22.91
2018-05-04T11:21:31.651Z,23.00
2018-05-04T11:23:59.115Z,23.13
2018-05-04T11:26:26.505Z,23.21
2018-05-04T11:28:53.888Z,23.68
2018-05-04T11:31:21.285Z,23.89
2018-05-04T11:33:48.647Z,24.13
2018-05-04T11:36:16.039Z,24.26
2018-05-04T11:38:43.419Z,24.51
2018-05-04T11:41:10.798Z,24.73
2018-05-04T11:43:38.187Z,24.69
2018-05-04T11:46:05.592Z,24.59
2018-05-04T11:48:32.962Z,24.94
2018-05-04T11:51:00.493Z,25.31
2018-05-04T11:53:27.854Z,25.58
2018-05-04T11:55:55.259Z,25.51
2018-05-04T11:58:22.686Z,25.73
2018-05-04T12:00:50.056Z,25.94
2018-05-04T12:03:17.516Z,26.62
2018-05-04T12:05:44.933Z,27.10
2018-05-04T12:08:16.471Z,27.14
2018-05-04T12:10:43.971Z,27.59
2018-05-04T12:13:11.308Z,28.02
2018-05-04T12:15:38.744Z,28.89
2018-05-04T12:18:06.128Z,28.89
2018-05-04T12:20:34.392Z,29.38
2018-05-04T12:23:01.927Z,30.10
2018-05-04T12:25:29.406Z,30.55
2018-05-04T12:27:56.807Z,31.00
2018-05-04T12:30:24.309Z,30.70
2018-05-04T12:32:51.628Z,31.48
2018-05-04T12:35:19.033Z,31.54
2018-05-04T12:37:46.419Z,30.94
2018-05-04T12:40:14.242Z,30.93
2018-05-04T12:42:41.660Z,31.87
2018-05-04T12:45:09.123Z,32.15
2018-05-04T12:47:36.523Z,33.05
2018-05-04T12:50:04.059Z,33.36
2018-05-04T12:52:31.536Z,32.44
2018-05-04T12:54:59.000Z,33.03
2018-05-04T12:57:26.471Z,33.42
2018-05-04T12:59:53.898Z,34.06
2018-05-04T13:02:21.319Z,33.91
2018-05-04T13:04:48.965Z,33.28
2018-05-04T13:07:16.391Z,34.06
2018-05-04T13:09:43.836Z,34.93
2018-05-04T13:12:11.231Z,35.03
2018-05-04T13:14:38.616Z,35.08
2018-05-04T13:17:06.050Z,35.01
2018-05-04T13:19:33.453Z,35.16
2018-05-04T13:22:00.834Z,34.19
2018-05-04T13:24:28.220Z,34.54
2018-05-04T13:26:55.636Z,35.25
2018-05-04T13:29:23.037Z,35.34
2018-05-04T13:31:50.442Z,35.23
2018-05-04T13:34:17.837Z,34.96
2018-05-04T13:36:45.240Z,35.18
2018-05-04T13:39:12.684Z,35.68
2018-05-04T13:41:40.103Z,35.42
2018-05-04T13:44:07.671Z,35.42
2018-05-04T13:46:35.092Z,35.82
2018-05-04T13:49:02.474Z,35.97
2018-05-04T13:51:30.234Z,35.41
2018-05-04T13:53:57.814Z,34.71
2018-05-04T13:56:25.234Z,35.12
2018-05-04T13:58:52.823Z,35.76
2018-05-04T14:01:20.238Z,36.55
2018-05-04T14:03:49.613Z,36.47
2018-05-04T14:06:17.034Z,37.16
2018-05-04T14:08:44.432Z,35.36
2018-05-04T14:11:11.990Z,35.41
2018-05-04T14:13:39.408Z,36.36
2018-05-04T14:16:08.041Z,37.08
2018-05-04T14:18:35.487Z,37.18
2018-05-04T14:21:02.901Z,36.91
2018-05-04T14:23:30.315Z,37.04
2018-05-04T14:25:57.733Z,37.10
2018-05-04T14:28:25.203Z,37.02
2018-05-04T14:30:52.650Z,37.48
2018-05-04T14:33:20.311Z,37.60
2018-05-04T14:35:47.796Z,37.29
2018-05-04T14:38:15.938Z,37.53
2018-05-04T14:40:44.191Z,36.79
2018-05-04T14:43:11.969Z,37.32
2018-05-04T14:45:39.355Z,36.81
2018-05-04T14:48:06.758Z,37.90
2018-05-04T14:50:34.147Z,37.24
2018-05-04T14:53:02.907Z,37.39
2018-05-04T14:55:30.938Z,37.48
2018-05-04T14:57:58.603Z,36.79
2018-05-04T15:00:25.984Z,37.24
2018-05-04T15:02:53.486Z,37.40
2018-05-04T15:05:20.972Z,36.69
2018-05-04T15:07:49.156Z,36.53
2018-05-04T15:10:16.675Z,36.78
2018-05-04T15:12:44.077Z,36.82
2018-05-04T15:15:11.490Z,37.19
2018-05-04T15:17:39.021Z,35.82
2018-05-04T15:20:06.440Z,34.82
2018-05-04T15:22:33.863Z,35.90
2018-05-04T15:25:01.375Z,35.74
2018-05-04T15:27:28.677Z,36.41
2018-05-04T15:29:56.204Z,35.67
2018-05-04T15:32:23.831Z,35.76
2018-05-04T15:34:52.171Z,35.10
2018-05-04T15:37:19.564Z,35.58
2018-05-04T15:39:46.951Z,35.48
2018-05-04T15:42:14.334Z,36.05
2018-05-04T15:44:41.724Z,34.69
2018-05-04T15:47:09.144Z,34.84
2018-05-04T15:49:36.601Z,35.14
2018-05-04T15:52:04.449Z,34.60
2018-05-04T15:54:31.931Z,33.95
2018-05-04T15:57:00.477Z,34.59
2018-05-04T15:59:29.220Z,35.09
2018-05-04T16:01:56.745Z,34.69
2018-05-04T16:04:26.094Z,34.86
2018-05-04T16:06:53.501Z,34.26
2018-05-04T16:09:21.388Z,34.35
2018-05-04T16:11:50.074Z,33.55
2018-05-04T16:14:18.272Z,34.18
2018-05-04T16:16:45.659Z,33.21
2018-05-04T16:19:13.081Z,32.86
2018-05-04T16:21:40.476Z,32.96
2018-05-04T16:24:07.872Z,32.63
2018-05-04T16:26:35.255Z,32.53
2018-05-04T16:29:02.669Z,31.37
2018-05-04T16:31:30.093Z,30.53
2018-05-04T16:33:57.504Z,30.15
2018-05-04T16:36:24.926Z,29.97
2018-05-04T16:38:52.307Z,29.57
2018-05-04T16:41:20.347Z,28.83
2018-05-04T16:43:47.731Z,28.59
2018-05-04T16:46:20.793Z,28.18
2018-05-04T16:48:53.707Z,27.86
2018-05-04T16:51:21.088Z,27.66
2018-05-04T16:53:48.501Z,27.37
2018-05-04T16:56:15.874Z,27.31
2018-05-04T16:58:43.263Z,27.02
2018-05-04T17:01:10.937Z,26.76
2018-05-04T17:03:39.194Z,26.89
2018-05-04T17:06:06.575Z,26.81
2018-05-04T17:08:33.968Z,26.47
2018-05-04T17:11:01.367Z,26.19
2018-05-04T17:13:28.790Z,26.23
2018-05-04T17:15:56.211Z,26.05
2018-05-04T17:18:23.589Z,25.97
2018-05-04T17:20:51.939Z,26.01
2018-05-04T17:23:20.552Z,25.86
2018-05-04T17:25:48.408Z,25.97
2018-05-04T17:28:15.791Z,25.68
2018-05-04T17:30:46.636Z,25.41
2018-05-04T17:33:14.060Z,25.37
2018-05-04T17:35:43.166Z,25.17
2018-05-04T17:38:10.579Z,25.38
2018-05-04T17:40:38.016Z,25.17
2018-05-04T17:43:05.404Z,24.96
2018-05-04T17:45:32.792Z,24.81
2018-05-04T17:48:00.286Z,24.83
2018-05-04T17:50:27.677Z,24.76
2018-05-04T17:52:55.078Z,24.50
2018-05-04T17:55:22.487Z,24.51
2018-05-04T17:57:49.879Z,24.63
2018-05-04T18:00:17.265Z,24.49
2018-05-04T18:02:44.673Z,24.60
2018-05-04T18:05:12.047Z,24.58
2018-05-04T18:07:39.469Z,24.50
2018-05-04T18:10:06.839Z,24.22
2018-05-04T18:12:34.239Z,24.04
2018-05-04T18:15:01.716Z,24.09
2018-05-04T18:17:29.191Z,24.00
2018-05-04T18:19:56.510Z,23.52
2018-05-04T18:22:23.904Z,23.54
2018-05-04T18:24:51.292Z,23.75
2018-05-04T18:27:18.692Z,23.55
2018-05-04T18:29:46.085Z,23.62
2018-05-04T18:32:13.491Z,23.19
2018-05-04T18:34:40.979Z,23.56
2018-05-04T18:37:08.391Z,23.30
2018-05-04T18:39:35.790Z,23.29
2018-05-04T18:42:03.182Z,23.00
2018-05-04T18:44:30.575Z,23.24
2018-05-04T18:46:57.981Z,23.16
2018-05-04T18:49:25.419Z,22.81
2018-05-04T18:51:52.812Z,22.83
2018-05-04T18:54:20.218Z,22.66
2018-05-04T18:56:47.837Z,22.58
2018-05-04T18:59:15.211Z,22.63
2018-05-04T19:01:42.612Z,22.62
2018-05-04T19:04:10.003Z,22.32
2018-05-04T19:06:37.437Z,22.48
2018-05-04T19:09:04.848Z,22.32
2018-05-04T19:11:32.254Z,22.29
2018-05-04T19:13:59.660Z,22.38
2018-05-04T19:16:27.057Z,22.10
2018-05-04T19:18:54.477Z,22.11
2018-05-04T19:21:22.083Z,22.15
2018-05-04T19:23:49.490Z,22.01
2018-05-04T19:26:16.879Z,22.23
2018-05-04T19:28:44.556Z,22.26
2018-05-04T19:31:12.604Z,21.73
2018-05-04T19:33:39.999Z,21.87
2018-05-04T19:36:07.402Z,21.90
2018-05-04T19:38:34.851Z,21.84
2018-05-04T19:41:02.237Z,21.87
2018-05-04T19:43:29.651Z,22.00
2018-05-04T19:45:57.038Z,21.77
2018-05-04T19:48:24.569Z,21.77
2018-05-04T19:50:51.868Z,21.69
2018-05-04T19:53:19.278Z,21.55
2018-05-04T19:55:46.663Z,21.58
2018-05-04T19:58:14.114Z,21.46
2018-05-04T20:00:41.586Z,21.17
2018-05-04T20:03:08.986Z,21.38
2018-05-04T20:05:36.394Z,21.43
2018-05-04T20:08:03.761Z,21.41
2018-05-04T20:10:31.206Z,21.44
2018-05-04T20:12:58.656Z,21.34
2018-05-04T20:15:26.968Z,21.23
2018-05-04T20:17:54.357Z,21.19
2018-05-04T20:20:21.866Z,20.92
2018-05-04T20:22:49.236Z,20.90
2018-05-04T20:25:16.637Z,20.74
2018-05-04T20:27:44.032Z,20.77
2018-05-04T20:30:11.519Z,20.66
2018-05-04T20:32:38.931Z,20.65
2018-05-04T20:35:06.484Z,20.71
2018-05-04T20:37:33.908Z,20.74
2018-05-04T20:40:01.326Z,20.55
2018-05-04T20:42:28.739Z,20.38
2018-05-04T20:44:56.123Z,20.39
2018-05-04T20:47:23.485Z,20.40
2018-05-04T20:49:50.899Z,20.46
2018-05-04T20:52:18.276Z,20.35
2018-05-04T20:54:45.691Z,20.05
2018-05-04T20:57:13.106Z,20.15
2018-05-04T21:02:17.399Z,20.37
2018-05-04T21:04:44.816Z,20.52
2018-05-04T21:07:12.201Z,20.45
2018-05-04T21:09:39.607Z,20.33
2018-05-04T21:12:06.987Z,20.13
2018-05-04T21:14:34.382Z,19.86
2018-05-04T21:17:01.995Z,20.02
2018-05-04T21:19:29.446Z,20.04
2018-05-04T21:21:56.838Z,19.77
2018-05-04T21:24:24.780Z,19.73
2018-05-04T21:26:52.214Z,19.88
2018-05-04T21:29:19.595Z,19.89
2018-05-04T21:31:47.041Z,19.81
2018-05-04T21:34:14.427Z,19.48
2018-05-04T21:36:41.813Z,19.53
2018-05-04T21:39:09.227Z,19.32
2018-05-04T21:41:36.608Z,19.42
2018-05-04T21:44:04.869Z,19.11
2018-05-04T21:46:32.256Z,19.27
2018-05-04T21:48:59.646Z,19.42
2018-05-04T21:51:27.043Z,19.50
2018-05-04T21:53:54.451Z,19.14
2018-05-04T21:56:23.114Z,19.10
2018-05-04T21:58:50.503Z,18.96
2018-05-04T22:01:17.877Z,19.15
2018-05-04T22:03:45.328Z,19.11
2018-05-04T22:06:12.700Z,19.08
2018-05-04T22:08:40.100Z,19.17
2018-05-04T22:11:07.493Z,19.13
2018-05-04T22:13:34.852Z,18.80
2018-05-04T22:16:02.239Z,18.86
2018-05-04T22:18:29.634Z,18.87
2018-05-04T22:20:57.009Z,18.71
2018-05-04T22:23:24.388Z,18.69
2018-05-04T22:25:51.763Z,18.58
2018-05-04T22:28:19.146Z,18.62
2018-05-04T22:30:46.539Z,18.46
2018-05-04T22:33:13.911Z,18.74
2018-05-04T22:35:41.299Z,18.44
2018-05-04T22:38:08.678Z,18.38
2018-05-04T22:40:36.064Z,18.25
2018-05-04T22:43:03.439Z,18.41
2018-05-04T22:45:30.820Z,18.41
2018-05-04T22:47:58.202Z,18.70
2018-05-04T22:50:25.593Z,18.54
2018-05-04T22:52:52.964Z,18.40
2018-05-04T22:55:20.360Z,18.71
2018-05-04T22:57:47.739Z,18.82
2018-05-04T23:00:18.703Z,18.65
2018-05-04T23:02:46.071Z,18.18
2018-05-04T23:05:13.462Z,18.38
2018-05-04T23:07:40.836Z,18.37
2018-05-04T23:10:08.220Z,18.38
2018-05-04T23:12:35.599Z,18.16
2018-05-04T23:15:02.988Z,17.91
2018-05-04T23:17:30.370Z,18.15
2018-05-04T23:19:57.746Z,18.15
2018-05-04T23:22:28.925Z,17.83
2018-05-04T23:24:56.310Z,17.59
2018-05-04T23:27:23.682Z,17.83
2018-05-04T23:29:51.073Z,17.66
2018-05-04T23:32:18.443Z,17.90
2018-05-04T23:34:45.838Z,17.29
2018-05-04T23:37:13.226Z,17.62
2018-05-04T23:39:40.600Z,17.56
2018-05-04T23:42:07.983Z,17.52
2018-05-04T23:44:35.378Z,17.53
2018-05-04T23:47:02.753Z,17.60
2018-05-04T23:49:30.132Z,17.31
2018-05-04T23:51:57.517Z,17.59
2018-05-04T23:54:24.889Z,17.24
2018-05-04T23:56:52.271Z,17.06
2018-05-04T23:59:19.650Z,17.30
